Time;durP1;ratioP1;P1;durP2;ratioP2;P2;SDS_P1;SDS_P2;PMS_P1;PMS_P2;Temp;Humidity;BMP_temperature;BMP_pressure;BME280_temperature;BME280_humidity;BME280_pressure;Samples;Min_cycle;Max_cycle;Signal;HPM_P1;HPM_P2
2023/10/23 00:00:13;;;;;;;2.53;2.33;;;14.80;99.90;;;;;;2097907;28;20363;-72
2023/10/23 00:01:14;;;;;;;5.50;2.00;;;14.80;99.90;;;;;;2097630;28;20024;-72
2023/10/23 00:02:14;;;;;;;3.60;2.08;;;14.80;99.90;;;;;;2097911;28;20047;-73
2023/10/23 00:03:15;;;;;;;4.25;2.15;;;14.80;99.90;;;;;;2098778;28;20062;-73
2023/10/23 00:04:16;;;;;;;3.50;2.40;;;14.80;99.90;;;;;;2097551;28;20035;-73
2023/10/23 00:05:16;;;;;;;5.57;2.40;;;14.80;99.90;;;;;;2096236;28;20043;-73
2023/10/23 00:06:17;;;;;;;4.47;2.30;;;14.80;99.90;;;;;;2097453;28;20051;-72
2023/10/23 00:07:17;;;;;;;5.47;2.70;;;14.80;99.90;;;;;;2099236;28;20033;-73
2023/10/23 00:08:18;;;;;;;3.75;2.20;;;14.80;99.90;;;;;;2098368;28;20435;-73
2023/10/23 00:09:18;;;;;;;3.15;1.60;;;14.80;99.90;;;;;;2098794;28;20024;-72
2023/10/23 00:10:19;;;;;;;2.83;2.00;;;14.80;99.90;;;;;;2096851;28;20028;-72
2023/10/23 00:11:29;;;;;;;1.98;1.60;;;14.80;99.90;;;;;;2097570;28;20078;-73
2023/10/23 00:12:29;;;;;;;3.58;2.22;;;14.80;99.90;;;;;;2098009;28;20056;-73
2023/10/23 00:13:30;;;;;;;3.80;2.15;;;14.70;99.90;;;;;;2099847;28;20036;-73
2023/10/23 00:14:30;;;;;;;6.20;2.67;;;14.70;99.90;;;;;;2093226;28;20046;-72
2023/10/23 00:15:31;;;;;;;4.47;2.30;;;14.70;99.90;;;;;;2100721;28;20044;-73
2023/10/23 00:16:32;;;;;;;4.15;2.28;;;14.70;99.90;;;;;;2095973;28;20024;-72
2023/10/23 00:17:33;;;;;;;2.67;1.50;;;14.70;99.90;;;;;;2097270;28;20052;-73
2023/10/23 00:18:33;;;;;;;3.38;2.28;;;14.60;99.90;;;;;;2097623;28;20475;-73
2023/10/23 00:19:34;;;;;;;3.78;2.30;;;14.60;99.90;;;;;;2099604;28;20901;-73
2023/10/23 00:20:34;;;;;;;3.08;1.80;;;14.60;99.90;;;;;;2098338;28;20062;-72
2023/10/23 00:21:35;;;;;;;4.13;2.17;;;14.60;99.90;;;;;;2096679;28;20029;-72
2023/10/23 00:22:35;;;;;;;5.05;2.35;;;14.60;99.90;;;;;;2100021;28;20820;-73
2023/10/23 00:23:36;;;;;;;4.50;2.13;;;14.60;99.90;;;;;;2102544;28;20048;-72
2023/10/23 00:24:36;;;;;;;4.10;2.10;;;14.60;99.90;;;;;;2097868;28;20097;-72
2023/10/23 00:25:37;;;;;;;7.63;2.63;;;14.60;99.90;;;;;;2098575;28;20044;-73
2023/10/23 00:26:37;;;;;;;3.83;2.20;;;14.60;99.90;;;;;;2098588;28;20064;-72
2023/10/23 00:27:38;;;;;;;5.90;2.30;;;14.60;99.90;;;;;;2097688;28;20031;-73
2023/10/23 00:28:38;;;;;;;3.70;1.83;;;14.50;99.90;;;;;;2098102;28;20073;-73
2023/10/23 00:29:39;;;;;;;2.70;1.80;;;14.60;99.90;;;;;;2098185;28;20455;-73
2023/10/23 00:30:39;;;;;;;4.47;2.40;;;14.50;99.90;;;;;;2098806;28;20023;-72
2023/10/23 00:31:40;;;;;;;4.53;2.10;;;14.50;99.90;;;;;;2099307;28;20032;-72
2023/10/23 00:32:40;;;;;;;3.10;1.95;;;14.50;99.90;;;;;;2098076;28;20043;-73
2023/10/23 00:33:41;;;;;;;4.20;2.17;;;14.50;99.90;;;;;;2098062;28;20103;-72
2023/10/23 00:34:42;;;;;;;4.25;2.10;;;14.50;99.90;;;;;;2097846;28;20490;-72
2023/10/23 00:35:42;;;;;;;2.45;2.05;;;14.50;99.90;;;;;;2097089;28;20391;-73
2023/10/23 00:36:43;;;;;;;4.88;2.10;;;14.50;99.90;;;;;;2097402;28;20101;-72
2023/10/23 00:37:43;;;;;;;4.22;2.47;;;14.50;99.90;;;;;;2098706;28;20031;-73
2023/10/23 00:38:44;;;;;;;5.45;2.80;;;14.50;99.90;;;;;;2097339;28;20494;-73
2023/10/23 00:39:44;;;;;;;5.93;2.40;;;14.50;99.90;;;;;;2101090;28;20197;-72
2023/10/23 00:40:45;;;;;;;4.63;2.42;;;14.50;99.90;;;;;;2101591;28;20024;-73
2023/10/23 00:41:46;;;;;;;3.35;2.50;;;14.50;99.90;;;;;;2097273;28;20036;-72
2023/10/23 00:42:46;;;;;;;4.60;2.67;;;14.50;99.90;;;;;;2097055;28;20530;-73
2023/10/23 00:43:47;;;;;;;5.38;2.58;;;14.50;99.90;;;;;;2099300;28;20101;-74
2023/10/23 00:44:47;;;;;;;3.25;2.40;;;14.40;99.90;;;;;;2099722;28;20032;-73
2023/10/23 00:45:55;;;;;;;6.10;2.92;;;14.40;99.90;;;;;;2098335;28;20040;-74
2023/10/23 00:46:56;;;;;;;4.47;2.53;;;14.40;99.90;;;;;;2098164;28;20040;-73
2023/10/23 00:47:56;;;;;;;4.38;2.53;;;14.40;99.90;;;;;;2096594;28;20104;-73
2023/10/23 00:48:58;;;;;;;6.75;3.25;;;14.40;99.90;;;;;;2097481;28;20104;-74
2023/10/23 00:50:00;;;;;;;3.75;2.17;;;14.40;99.90;;;;;;2098800;28;20029;-74
2023/10/23 00:51:01;;;;;;;3.67;2.03;;;14.40;99.90;;;;;;2098329;28;20171;-74
2023/10/23 00:52:02;;;;;;;4.28;2.88;;;14.40;99.90;;;;;;2101501;28;20451;-74
2023/10/23 00:53:03;;;;;;;4.38;2.42;;;14.40;99.90;;;;;;2098602;28;20131;-73
2023/10/23 00:54:05;;;;;;;2.65;2.15;;;14.40;99.90;;;;;;2099842;28;20024;-73
2023/10/23 00:55:06;;;;;;;3.78;2.00;;;14.30;99.90;;;;;;2098573;28;20033;-74
2023/10/23 00:56:09;;;;;;;4.28;2.00;;;14.40;99.90;;;;;;2099642;28;20052;-74
2023/10/23 00:57:10;;;;;;;4.93;2.40;;;14.30;99.90;;;;;;2098286;28;20060;-74
2023/10/23 00:58:11;;;;;;;5.05;2.10;;;14.40;99.90;;;;;;2099995;28;20032;-74
2023/10/23 00:59:12;;;;;;;3.67;2.10;;;14.30;99.90;;;;;;2099024;28;20028;-74
2023/10/23 01:00:13;;;;;;;3.90;2.05;;;14.30;99.90;;;;;;2097938;28;20028;-74
2023/10/23 01:01:14;;;;;;;7.68;2.25;;;14.30;99.90;;;;;;2098722;28;20040;-74
2023/10/23 01:02:15;;;;;;;3.42;2.28;;;14.30;99.90;;;;;;2098378;28;20029;-74
2023/10/23 01:03:15;;;;;;;3.42;2.30;;;14.40;99.90;;;;;;2098247;28;20025;-73
2023/10/23 01:04:16;;;;;;;3.72;2.20;;;14.30;99.90;;;;;;2093664;28;20048;-74
2023/10/23 01:05:16;;;;;;;5.55;2.40;;;14.30;99.90;;;;;;2095600;28;20127;-74
2023/10/23 01:06:17;;;;;;;2.10;1.80;;;14.30;99.90;;;;;;2096097;28;20033;-74
2023/10/23 01:07:17;;;;;;;2.70;1.85;;;14.30;99.90;;;;;;2104090;28;20135;-74
2023/10/23 01:08:18;;;;;;;4.45;2.25;;;14.30;99.90;;;;;;2100540;28;20154;-74
2023/10/23 01:09:19;;;;;;;3.08;2.17;;;14.30;99.90;;;;;;2097817;28;20031;-75
2023/10/23 01:10:19;;;;;;;3.95;2.17;;;14.30;99.90;;;;;;2097324;28;20028;-74
2023/10/23 01:11:20;;;;;;;3.13;1.95;;;14.30;99.90;;;;;;2099447;28;20020;-74
2023/10/23 01:12:20;;;;;;;7.70;2.42;;;14.20;99.90;;;;;;2099895;28;20506;-74
2023/10/23 01:13:21;;;;;;;3.28;2.00;;;14.20;99.90;;;;;;2099405;28;20056;-74
2023/10/23 01:14:22;;;;;;;3.08;1.85;;;14.20;99.90;;;;;;2101398;28;20043;-73
2023/10/23 01:15:22;;;;;;;6.65;2.30;;;14.20;99.90;;;;;;2098648;28;20012;-74
2023/10/23 01:16:23;;;;;;;4.13;2.20;;;14.20;99.90;;;;;;2097001;28;20032;-74
2023/10/23 01:17:23;;;;;;;3.67;1.80;;;14.20;99.90;;;;;;2099386;28;20028;-74
2023/10/23 01:18:24;;;;;;;4.15;2.28;;;14.20;99.90;;;;;;2098636;28;20471;-73
2023/10/23 01:19:25;;;;;;;3.47;2.00;;;14.10;99.90;;;;;;2098634;28;20391;-73
2023/10/23 01:20:28;;;;;;;4.57;2.15;;;14.10;99.90;;;;;;2102744;28;20020;-74
2023/10/23 01:21:28;;;;;;;3.38;2.03;;;14.10;99.90;;;;;;2099634;28;20028;-74
2023/10/23 01:22:29;;;;;;;3.15;2.45;;;14.10;99.90;;;;;;2099753;28;20057;-74
2023/10/23 01:23:35;;;;;;;5.15;1.95;;;14.00;99.90;;;;;;2099941;28;20027;-74
2023/10/23 01:24:39;;;;;;;5.00;2.22;;;14.00;99.90;;;;;;2100055;28;20424;-74
2023/10/23 01:25:39;;;;;;;5.00;1.98;;;14.00;99.90;;;;;;2099417;28;20143;-74
2023/10/23 01:26:40;;;;;;;6.47;2.10;;;14.00;99.90;;;;;;2099161;28;20035;-74
2023/10/23 01:27:41;;;;;;;3.65;2.70;;;13.90;99.90;;;;;;2099716;28;20036;-74
2023/10/23 01:28:42;;;;;;;4.07;2.25;;;14.00;99.90;;;;;;2099149;28;20028;-74
2023/10/23 01:29:42;;;;;;;3.60;2.10;;;13.90;99.90;;;;;;2100066;28;20036;-75
2023/10/23 01:30:43;;;;;;;4.15;1.83;;;13.90;99.90;;;;;;2098884;28;20028;-74
2023/10/23 01:31:43;;;;;;;3.63;1.90;;;13.90;99.90;;;;;;2098506;28;20024;-74
2023/10/23 01:32:44;;;;;;;4.10;2.10;;;13.90;99.90;;;;;;2098815;28;20032;-75
2023/10/23 01:33:45;;;;;;;3.63;1.98;;;13.80;99.90;;;;;;2097983;28;20047;-74
2023/10/23 01:34:46;;;;;;;2.28;1.73;;;13.80;99.90;;;;;;2097826;28;20051;-73
2023/10/23 01:35:46;;;;;;;4.00;1.70;;;13.80;99.90;;;;;;2097838;28;20543;-73
2023/10/23 01:36:47;;;;;;;3.85;1.80;;;13.80;99.90;;;;;;2100597;28;20040;-74
2023/10/23 01:37:48;;;;;;;2.35;1.48;;;13.70;99.90;;;;;;2099740;28;20032;-74
2023/10/23 01:38:48;;;;;;;4.63;1.95;;;13.70;99.90;;;;;;2099518;28;20048;-74
2023/10/23 01:39:49;;;;;;;4.05;2.20;;;13.70;99.90;;;;;;2098694;28;20028;-73
2023/10/23 01:40:49;;;;;;;4.07;1.65;;;13.70;99.90;;;;;;2099553;28;21710;-74
2023/10/23 01:41:50;;;;;;;2.63;1.60;;;13.60;99.90;;;;;;2097214;28;20028;-74
2023/10/23 01:42:50;;;;;;;4.85;1.80;;;13.60;99.90;;;;;;2100646;28;20153;-74
2023/10/23 01:43:51;;;;;;;3.45;1.80;;;13.60;99.90;;;;;;2100714;28;20036;-74
2023/10/23 01:44:51;;;;;;;4.72;1.70;;;13.50;99.90;;;;;;2095997;28;20129;-74
2023/10/23 01:45:52;;;;;;;2.58;1.85;;;13.50;99.90;;;;;;2099260;28;20492;-73
2023/10/23 01:46:52;;;;;;;2.28;1.77;;;13.50;99.90;;;;;;2101644;28;20074;-73
2023/10/23 01:47:53;;;;;;;4.75;1.63;;;13.50;99.90;;;;;;2100450;28;20111;-74
2023/10/23 01:48:53;;;;;;;3.13;1.60;;;13.50;99.90;;;;;;2098311;28;20032;-74
2023/10/23 01:49:54;;;;;;;4.20;1.77;;;13.50;99.90;;;;;;2097690;28;20048;-73
2023/10/23 01:50:55;;;;;;;4.60;1.90;;;13.50;99.90;;;;;;2099394;28;20047;-74
2023/10/23 01:51:55;;;;;;;2.78;1.90;;;13.40;99.90;;;;;;2099622;28;20028;-74
2023/10/23 01:52:57;;;;;;;3.63;2.00;;;13.40;99.90;;;;;;2094380;28;20031;-74
2023/10/23 01:53:57;;;;;;;4.50;1.77;;;13.40;99.90;;;;;;2100611;28;20034;-74
2023/10/23 01:55:00;;;;;;;3.78;1.65;;;13.40;99.90;;;;;;2098952;28;20009;-74
2023/10/23 01:56:07;;;;;;;4.22;1.60;;;13.40;99.90;;;;;;2097021;28;20035;-74
2023/10/23 01:57:07;;;;;;;2.50;1.58;;;13.30;99.90;;;;;;2100005;28;20032;-74
2023/10/23 01:58:08;;;;;;;2.13;1.70;;;13.30;99.90;;;;;;2099885;28;20553;-74
2023/10/23 01:59:08;;;;;;;2.58;1.63;;;13.30;99.90;;;;;;2100524;28;20032;-73
2023/10/23 02:00:10;;;;;;;2.17;1.75;;;13.20;99.90;;;;;;2097619;28;20035;-74
2023/10/23 02:01:22;;;;;;;5.93;1.85;;;13.20;99.90;;;;;;2098693;28;21903;-74
2023/10/23 02:02:22;;;;;;;3.10;1.60;;;13.20;99.90;;;;;;2098508;28;20017;-73
2023/10/23 02:03:23;;;;;;;3.05;1.77;;;13.20;99.90;;;;;;2097304;28;20032;-75
2023/10/23 02:04:23;;;;;;;2.85;1.70;;;13.20;99.90;;;;;;2099712;28;20024;-74
2023/10/23 02:05:24;;;;;;;4.22;1.52;;;13.10;99.90;;;;;;2099559;28;20471;-75
2023/10/23 02:06:24;;;;;;;4.32;1.85;;;13.10;99.90;;;;;;2100830;28;20130;-73
2023/10/23 02:07:27;;;;;;;4.13;2.08;;;13.10;99.90;;;;;;2099638;28;20450;-73
2023/10/23 02:08:27;;;;;;;3.15;1.98;;;13.10;99.90;;;;;;2107258;28;20491;-74
2023/10/23 02:09:28;;;;;;;2.92;1.40;;;13.00;99.90;;;;;;2107746;28;20497;-74
2023/10/23 02:10:29;;;;;;;2.80;1.70;;;13.00;99.90;;;;;;2099136;28;20055;-74
2023/10/23 02:11:29;;;;;;;2.08;1.52;;;13.00;99.90;;;;;;2097150;28;20028;-73
2023/10/23 02:12:32;;;;;;;2.03;1.75;;;13.00;99.90;;;;;;2099953;28;20373;-74
2023/10/23 02:13:32;;;;;;;3.83;1.77;;;13.00;99.90;;;;;;2102190;28;20055;-74
2023/10/23 02:14:33;;;;;;;3.97;1.77;;;12.90;99.90;;;;;;2102017;28;20082;-74
2023/10/23 02:15:34;;;;;;;2.67;2.10;;;12.90;99.90;;;;;;2098357;28;20135;-74
2023/10/23 02:16:34;;;;;;;4.30;1.92;;;12.90;99.90;;;;;;2097875;28;20017;-74
2023/10/23 02:17:35;;;;;;;2.38;1.73;;;12.90;99.90;;;;;;2097549;28;20029;-75
2023/10/23 02:18:35;;;;;;;3.78;1.80;;;12.90;99.90;;;;;;2097716;28;20032;-74
2023/10/23 02:19:36;;;;;;;1.98;1.48;;;12.90;99.90;;;;;;2098016;28;20020;-74
2023/10/23 02:20:36;;;;;;;3.88;1.52;;;12.80;99.90;;;;;;2098938;28;20102;-74
2023/10/23 02:21:37;;;;;;;2.15;1.73;;;12.80;99.90;;;;;;2100536;28;20035;-74
2023/10/23 02:22:38;;;;;;;2.55;1.60;;;12.80;99.90;;;;;;2099470;28;20028;-74
2023/10/23 02:23:38;;;;;;;4.18;1.88;;;12.80;99.90;;;;;;2098864;28;20687;-75
2023/10/23 02:24:39;;;;;;;3.60;2.03;;;12.70;99.90;;;;;;2102207;28;20020;-74
2023/10/23 02:25:39;;;;;;;5.45;2.10;;;12.80;99.90;;;;;;2102604;28;20061;-74
2023/10/23 02:26:40;;;;;;;1.30;1.20;;;12.70;99.90;;;;;;2099347;28;20036;-74
2023/10/23 02:27:40;;;;;;;2.47;1.63;;;12.70;99.90;;;;;;2098711;28;20613;-74
2023/10/23 02:28:41;;;;;;;2.92;1.75;;;12.70;99.90;;;;;;2099264;28;20036;-74
2023/10/23 02:29:42;;;;;;;3.58;2.08;;;12.60;99.90;;;;;;2097888;28;20480;-74
2023/10/23 02:30:42;;;;;;;2.42;1.60;;;12.60;99.90;;;;;;2098033;28;20024;-74
2023/10/23 02:31:43;;;;;;;2.22;1.38;;;12.60;99.90;;;;;;2097417;28;20058;-75
2023/10/23 02:32:43;;;;;;;3.45;1.63;;;12.60;99.90;;;;;;2102155;28;20059;-74
2023/10/23 02:33:44;;;;;;;5.68;2.17;;;12.60;99.90;;;;;;2101767;28;20633;-74
2023/10/23 02:34:45;;;;;;;1.55;1.45;;;12.50;99.90;;;;;;2097976;28;20062;-74
2023/10/23 02:35:45;;;;;;;1.73;1.33;;;12.50;99.90;;;;;;2098179;28;20112;-73
2023/10/23 02:36:46;;;;;;;3.85;1.90;;;12.50;99.90;;;;;;2097502;28;20059;-74
2023/10/23 02:37:49;;;;;;;3.20;1.70;;;12.50;99.90;;;;;;2098615;28;20029;-74
2023/10/23 02:38:50;;;;;;;2.58;1.63;;;12.50;99.90;;;;;;2095389;28;20082;-74
2023/10/23 02:39:51;;;;;;;4.00;1.75;;;12.50;99.90;;;;;;2098080;28;20028;-74
2023/10/23 02:40:53;;;;;;;2.78;1.33;;;12.40;99.90;;;;;;2098067;28;20106;-75
2023/10/23 02:41:53;;;;;;;3.95;1.58;;;12.40;99.90;;;;;;2099966;28;20033;-74
2023/10/23 02:42:54;;;;;;;4.95;1.40;;;12.40;99.90;;;;;;2097595;28;20028;-75
2023/10/23 02:43:55;;;;;;;4.15;1.70;;;12.40;99.90;;;;;;2097629;28;20491;-74
2023/10/23 02:44:55;;;;;;;7.60;2.10;;;12.30;99.90;;;;;;2099339;28;20171;-74
2023/10/23 02:46:00;;;;;;;3.33;1.63;;;12.30;99.90;;;;;;2099363;28;20761;-75
2023/10/23 02:47:02;;;;;;;3.28;1.85;;;12.30;99.90;;;;;;2097095;28;20074;-74
2023/10/23 02:48:03;;;;;;;3.08;1.60;;;12.30;99.90;;;;;;2099471;28;20021;-74
2023/10/23 02:49:05;;;;;;;2.65;1.95;;;12.30;99.90;;;;;;2098061;28;20028;-74
2023/10/23 02:50:06;;;;;;;2.78;1.45;;;12.30;99.90;;;;;;2099061;28;20063;-74
2023/10/23 02:51:07;;;;;;;2.15;1.60;;;12.30;99.90;;;;;;2100275;28;20055;-74
2023/10/23 02:52:07;;;;;;;4.30;1.67;;;12.30;99.90;;;;;;2099764;28;20035;-75
2023/10/23 02:53:08;;;;;;;3.72;1.50;;;12.20;99.90;;;;;;2099061;28;20107;-74
2023/10/23 02:54:08;;;;;;;2.25;1.48;;;12.20;99.90;;;;;;2098677;28;20024;-74
2023/10/23 02:55:09;;;;;;;5.47;1.85;;;12.20;99.90;;;;;;2098049;28;20486;-74
2023/10/23 02:56:11;;;;;;;1.75;1.38;;;12.20;99.90;;;;;;2098595;28;20107;-74
2023/10/23 02:57:12;;;;;;;4.57;2.17;;;12.20;99.90;;;;;;2097659;28;20139;-74
2023/10/23 02:58:12;;;;;;;4.32;1.88;;;12.20;99.90;;;;;;2098460;28;20028;-74
2023/10/23 02:59:13;;;;;;;2.10;1.60;;;12.10;99.90;;;;;;2098796;28;20025;-74
2023/10/23 03:00:13;;;;;;;8.02;2.00;;;12.10;99.90;;;;;;2098676;28;20025;-75
2023/10/23 03:01:23;;;;;;;3.45;2.05;;;12.10;99.90;;;;;;2102763;28;20035;-74
2023/10/23 03:02:24;;;;;;;3.38;1.67;;;12.10;99.90;;;;;;2101464;28;20067;-75
2023/10/23 03:03:25;;;;;;;6.72;1.90;;;12.10;99.90;;;;;;2099994;28;20714;-73
2023/10/23 03:04:25;;;;;;;3.20;1.70;;;12.10;99.90;;;;;;2098077;28;20107;-73
2023/10/23 03:05:26;;;;;;;3.45;1.65;;;12.10;99.90;;;;;;2091984;28;20021;-75
2023/10/23 03:06:27;;;;;;;2.78;1.70;;;12.00;99.90;;;;;;2092499;28;20526;-75
2023/10/23 03:07:27;;;;;;;5.07;2.17;;;12.00;99.90;;;;;;2091977;28;20758;-74
2023/10/23 03:08:28;;;;;;;3.38;1.40;;;12.00;99.90;;;;;;2094420;28;20109;-75
2023/10/23 03:09:28;;;;;;;2.97;1.80;;;12.00;99.90;;;;;;2090385;28;20122;-75
2023/10/23 03:10:29;;;;;;;3.63;1.50;;;12.00;99.90;;;;;;2099578;28;20028;-74
2023/10/23 03:11:30;;;;;;;5.80;1.65;;;12.00;99.90;;;;;;2100684;28;20025;-75
2023/10/23 03:12:30;;;;;;;3.20;1.83;;;12.00;99.90;;;;;;2094482;28;20029;-74
2023/10/23 03:13:34;;;;;;;2.35;1.35;;;12.00;99.90;;;;;;2100373;28;20028;-74
2023/10/23 03:14:34;;;;;;;3.85;1.88;;;12.00;99.90;;;;;;2096248;28;20096;-74
2023/10/23 03:15:36;;;;;;;3.20;1.80;;;12.00;99.90;;;;;;2096775;28;20039;-75
2023/10/23 03:16:37;;;;;;;2.28;1.73;;;12.00;99.90;;;;;;2097795;28;20012;-74
2023/10/23 03:17:38;;;;;;;4.50;1.90;;;11.90;99.90;;;;;;2096421;28;20028;-74
2023/10/23 03:18:39;;;;;;;3.83;1.95;;;11.90;99.90;;;;;;2102460;28;20035;-74
2023/10/23 03:19:39;;;;;;;3.00;2.03;;;11.90;99.90;;;;;;2093534;28;20040;-74
2023/10/23 03:20:40;;;;;;;2.40;1.58;;;11.90;99.90;;;;;;2093747;28;20028;-74
2023/10/23 03:21:41;;;;;;;4.63;1.75;;;11.90;99.90;;;;;;2099063;28;20054;-74
2023/10/23 03:22:41;;;;;;;3.95;1.80;;;11.90;99.90;;;;;;2098545;28;20029;-75
2023/10/23 03:23:42;;;;;;;3.72;1.88;;;11.90;99.90;;;;;;2099588;28;20108;-74
2023/10/23 03:24:43;;;;;;;6.30;1.85;;;11.90;99.90;;;;;;2097508;28;20060;-75
2023/10/23 03:25:44;;;;;;;4.55;2.05;;;11.80;99.90;;;;;;2099570;28;20016;-74
2023/10/23 03:26:44;;;;;;;3.03;1.75;;;11.80;99.90;;;;;;2099353;28;21487;-74
2023/10/23 03:27:45;;;;;;;2.72;1.65;;;11.80;99.90;;;;;;2099247;28;20088;-74
2023/10/23 03:28:46;;;;;;;6.57;2.05;;;11.80;99.90;;;;;;2100127;28;20107;-75
2023/10/23 03:29:46;;;;;;;4.10;2.00;;;11.80;99.90;;;;;;2099037;28;20024;-74
2023/10/23 03:30:47;;;;;;;3.38;1.90;;;11.80;99.90;;;;;;2097853;28;20139;-75
2023/10/23 03:31:51;;;;;;;3.03;1.80;;;11.80;99.90;;;;;;2102095;28;20039;-74
2023/10/23 03:32:52;;;;;;;3.45;1.63;;;11.80;99.90;;;;;;2101316;28;20055;-75
2023/10/23 03:33:53;;;;;;;3.33;1.60;;;11.70;99.90;;;;;;2096724;28;20032;-74
2023/10/23 03:34:53;;;;;;;3.00;1.40;;;11.70;99.90;;;;;;2098836;28;20024;-74
2023/10/23 03:35:54;;;;;;;2.92;1.92;;;11.70;99.90;;;;;;2098665;28;20069;-75
2023/10/23 03:36:54;;;;;;;1.90;1.70;;;11.70;99.90;;;;;;2098906;28;20391;-74
2023/10/23 03:37:55;;;;;;;5.85;2.03;;;11.70;99.90;;;;;;2098523;28;20031;-74
2023/10/23 03:38:55;;;;;;;3.67;2.25;;;11.70;99.90;;;;;;2097340;28;20060;-75
2023/10/23 03:39:56;;;;;;;2.50;1.60;;;11.70;99.90;;;;;;2097616;28;20107;-74
2023/10/23 03:40:58;;;;;;;3.45;1.67;;;11.70;99.90;;;;;;2099458;28;20032;-75
2023/10/23 03:41:59;;;;;;;2.60;1.90;;;11.60;99.90;;;;;;2098440;28;20032;-74
2023/10/23 03:42:59;;;;;;;2.65;1.45;;;11.60;99.90;;;;;;2100591;28;20020;-74
2023/10/23 03:44:02;;;;;;;5.10;1.98;;;11.60;99.90;;;;;;2093627;28;20052;-73
2023/10/23 03:45:03;;;;;;;2.88;1.75;;;11.60;99.90;;;;;;2092600;28;20033;-74
2023/10/23 03:46:04;;;;;;;2.38;1.77;;;11.60;99.90;;;;;;2100937;28;20036;-74
2023/10/23 03:47:05;;;;;;;4.60;1.70;;;11.60;99.90;;;;;;2097380;28;20794;-74
2023/10/23 03:48:05;;;;;;;2.72;1.70;;;11.60;99.90;;;;;;2099023;28;20099;-74
2023/10/23 03:49:06;;;;;;;2.80;1.73;;;11.50;99.90;;;;;;2098709;28;20028;-74
2023/10/23 03:50:07;;;;;;;3.47;2.17;;;11.50;99.90;;;;;;2099743;28;20020;-74
2023/10/23 03:51:07;;;;;;;2.83;1.75;;;11.50;99.90;;;;;;2098934;28;20081;-74
2023/10/23 03:52:08;;;;;;;2.45;1.80;;;11.50;99.90;;;;;;2098000;28;20392;-74
2023/10/23 03:53:09;;;;;;;2.72;1.65;;;11.50;99.90;;;;;;2098003;28;20062;-74
2023/10/23 03:54:09;;;;;;;3.35;1.60;;;11.50;99.90;;;;;;2098959;28;20035;-74
2023/10/23 03:55:10;;;;;;;3.95;1.83;;;11.50;99.90;;;;;;2097221;28;20034;-74
2023/10/23 03:56:11;;;;;;;4.63;1.73;;;11.40;99.90;;;;;;2098604;28;20028;-74
2023/10/23 03:57:11;;;;;;;3.83;1.50;;;11.40;99.90;;;;;;2096011;28;20059;-74
2023/10/23 03:58:12;;;;;;;2.92;1.35;;;11.40;99.90;;;;;;2097190;28;20434;-74
2023/10/23 03:59:13;;;;;;;2.60;2.00;;;11.40;99.90;;;;;;2098159;28;20643;-74
2023/10/23 04:00:13;;;;;;;2.08;1.83;;;11.40;99.90;;;;;;2096744;28;20086;-74
2023/10/23 04:01:14;;;;;;;2.97;1.60;;;11.40;99.90;;;;;;2098268;28;20073;-74
2023/10/23 04:02:14;;;;;;;2.47;1.77;;;11.40;99.90;;;;;;2098086;28;20132;-75
2023/10/23 04:03:15;;;;;;;3.50;1.77;;;11.40;99.90;;;;;;2098817;28;20511;-74
2023/10/23 04:04:15;;;;;;;3.60;2.17;;;11.30;99.90;;;;;;2097251;28;20154;-74
2023/10/23 04:05:16;;;;;;;3.63;1.70;;;11.30;99.90;;;;;;2100850;28;20020;-74
2023/10/23 04:06:17;;;;;;;3.90;1.95;;;11.30;99.90;;;;;;2100621;28;20130;-74
2023/10/23 04:07:17;;;;;;;2.03;1.60;;;11.30;99.90;;;;;;2096767;28;20027;-74
2023/10/23 04:08:18;;;;;;;1.58;1.48;;;11.30;99.90;;;;;;2097974;28;20034;-74
2023/10/23 04:09:19;;;;;;;2.70;1.70;;;11.30;99.90;;;;;;2101848;28;20046;-74
2023/10/23 04:10:20;;;;;;;1.83;1.73;;;11.20;99.90;;;;;;2100639;28;20103;-74
2023/10/23 04:11:20;;;;;;;1.90;1.75;;;11.30;99.90;;;;;;2095979;28;20089;-74
2023/10/23 04:12:21;;;;;;;4.00;1.48;;;11.20;99.90;;;;;;2098397;28;20550;-74
2023/10/23 04:13:21;;;;;;;3.17;1.75;;;11.20;99.90;;;;;;2102394;28;20031;-74
2023/10/23 04:14:22;;;;;;;3.25;1.58;;;11.20;99.90;;;;;;2100155;28;20546;-74
2023/10/23 04:15:22;;;;;;;4.22;1.70;;;11.20;99.90;;;;;;2098857;28;20059;-74
2023/10/23 04:16:23;;;;;;;3.58;1.63;;;11.20;99.90;;;;;;2096598;28;20115;-74
2023/10/23 04:17:24;;;;;;;3.22;1.80;;;11.10;99.90;;;;;;2095917;28;20060;-75
2023/10/23 04:18:25;;;;;;;2.70;1.95;;;11.10;99.90;;;;;;2099160;28;20135;-74
2023/10/23 04:19:26;;;;;;;2.85;1.85;;;11.10;99.90;;;;;;2096686;28;20116;-73
2023/10/23 04:20:26;;;;;;;2.05;1.52;;;11.10;99.90;;;;;;2098969;28;20036;-74
2023/10/23 04:21:27;;;;;;;2.63;1.70;;;11.10;99.90;;;;;;2098939;28;20043;-74
2023/10/23 04:22:27;;;;;;;3.42;1.65;;;11.10;99.90;;;;;;2098057;28;20036;-74
2023/10/23 04:23:28;;;;;;;4.53;2.20;;;11.10;99.90;;;;;;2099932;28;20028;-74
2023/10/23 04:24:30;;;;;;;3.53;1.90;;;11.10;99.90;;;;;;2097347;28;20024;-74
2023/10/23 04:25:30;;;;;;;2.60;1.77;;;11.00;99.90;;;;;;2096725;28;20609;-74
2023/10/23 04:26:31;;;;;;;3.13;1.98;;;11.10;99.90;;;;;;2096594;28;20387;-75
2023/10/23 04:27:31;;;;;;;2.78;1.67;;;11.00;99.90;;;;;;2100836;28;20407;-74
2023/10/23 04:28:32;;;;;;;2.58;2.03;;;11.00;99.90;;;;;;2101362;28;20028;-74
2023/10/23 04:29:33;;;;;;;2.97;1.42;;;11.00;99.90;;;;;;2098259;28;20135;-74
2023/10/23 04:30:34;;;;;;;2.33;1.90;;;11.00;99.90;;;;;;2096163;28;20028;-75
2023/10/23 04:31:34;;;;;;;4.95;1.95;;;11.00;99.90;;;;;;2099834;28;20478;-74
2023/10/23 04:32:35;;;;;;;2.85;1.60;;;11.00;99.90;;;;;;2096060;28;20082;-74
2023/10/23 04:33:35;;;;;;;2.70;1.67;;;11.00;99.90;;;;;;2101783;28;20067;-74
2023/10/23 04:34:36;;;;;;;3.83;2.03;;;11.00;99.90;;;;;;2101810;28;20030;-74
2023/10/23 04:35:36;;;;;;;3.80;1.92;;;11.00;99.90;;;;;;2095975;28;20050;-74
2023/10/23 04:36:37;;;;;;;3.72;2.30;;;10.90;99.90;;;;;;2099243;28;20049;-74
2023/10/23 04:37:37;;;;;;;3.28;2.10;;;10.90;99.90;;;;;;2099116;28;20039;-75
2023/10/23 04:38:38;;;;;;;3.33;2.30;;;10.90;99.90;;;;;;2098138;28;20124;-73
2023/10/23 04:39:38;;;;;;;3.13;1.95;;;10.90;99.90;;;;;;2104855;28;20411;-73
2023/10/23 04:40:39;;;;;;;4.30;2.10;;;10.90;99.90;;;;;;2105581;28;20036;-74
2023/10/23 04:41:39;;;;;;;4.22;2.15;;;10.90;99.90;;;;;;2099192;28;20038;-73
2023/10/23 04:42:40;;;;;;;4.22;2.00;;;10.90;99.90;;;;;;2097534;28;20025;-73
2023/10/23 04:43:41;;;;;;;5.13;2.10;;;10.90;99.90;;;;;;2096673;28;20023;-74
2023/10/23 04:44:41;;;;;;;3.33;1.92;;;10.90;99.90;;;;;;2095811;28;20020;-74
2023/10/23 04:45:42;;;;;;;4.00;1.90;;;10.90;99.90;;;;;;2098077;28;20052;-74
2023/10/23 04:46:42;;;;;;;2.65;1.83;;;10.80;99.90;;;;;;2097847;28;20450;-74
2023/10/23 04:47:43;;;;;;;3.40;2.00;;;10.80;99.90;;;;;;2094015;28;20595;-73
2023/10/23 04:48:43;;;;;;;3.35;2.40;;;10.80;99.90;;;;;;2097252;28;20055;-74
2023/10/23 04:49:46;;;;;;;5.13;2.40;;;10.80;99.90;;;;;;2100568;28;20020;-74
2023/10/23 04:50:47;;;;;;;6.35;2.67;;;10.80;99.90;;;;;;2099788;28;20090;-74
2023/10/23 04:51:48;;;;;;;2.95;2.65;;;10.80;99.90;;;;;;2100179;28;20043;-73
2023/10/23 04:52:49;;;;;;;5.05;2.83;;;10.80;99.90;;;;;;2094149;28;20024;-74
2023/10/23 04:53:49;;;;;;;5.47;3.80;;;10.80;99.90;;;;;;2093978;28;20052;-74
2023/10/23 04:54:50;;;;;;;6.20;4.38;;;10.80;99.90;;;;;;2094611;28;20050;-74
2023/10/23 04:55:51;;;;;;;7.63;4.90;;;10.80;99.90;;;;;;2092196;28;20032;-74
2023/10/23 04:56:51;;;;;;;4.82;3.92;;;10.70;99.90;;;;;;2098405;28;20028;-74
2023/10/23 04:57:52;;;;;;;5.78;4.10;;;10.80;99.90;;;;;;2096534;28;20028;-74
2023/10/23 04:58:52;;;;;;;5.78;3.70;;;10.80;99.90;;;;;;2098443;28;20035;-74
2023/10/23 04:59:53;;;;;;;6.88;3.80;;;10.70;99.90;;;;;;2095950;28;20078;-73
2023/10/23 05:00:54;;;;;;;6.05;4.18;;;10.80;99.90;;;;;;2099054;28;20032;-74
2023/10/23 05:01:54;;;;;;;6.28;4.47;;;10.80;99.90;;;;;;2097762;28;20020;-74
2023/10/23 05:02:55;;;;;;;5.65;3.60;;;10.80;99.90;;;;;;2098551;28;20113;-74
2023/10/23 05:03:56;;;;;;;5.55;3.92;;;10.80;99.90;;;;;;2098926;28;20142;-74
2023/10/23 05:04:56;;;;;;;4.20;3.28;;;10.70;99.90;;;;;;2096696;28;20115;-74
2023/10/23 05:05:57;;;;;;;5.57;3.30;;;10.80;99.90;;;;;;2101765;28;20553;-75
2023/10/23 05:06:57;;;;;;;7.50;3.80;;;10.80;99.90;;;;;;2094290;28;20037;-74
2023/10/23 05:07:59;;;;;;;4.38;3.35;;;10.80;99.90;;;;;;2091839;28;20036;-74
2023/10/23 05:09:00;;;;;;;3.90;3.15;;;10.80;99.90;;;;;;2094212;28;20067;-74
2023/10/23 05:10:04;;;;;;;5.30;3.00;;;10.80;99.90;;;;;;2098754;28;20024;-74
2023/10/23 05:11:06;;;;;;;6.30;3.30;;;10.80;99.90;;;;;;2100091;28;20020;-74
2023/10/23 05:12:07;;;;;;;6.25;3.67;;;10.80;99.90;;;;;;2097361;28;20801;-73
2023/10/23 05:13:07;;;;;;;5.20;3.42;;;10.70;99.90;;;;;;2096271;28;20032;-74
2023/10/23 05:14:08;;;;;;;3.65;3.15;;;10.80;99.90;;;;;;2096813;28;20056;-73
2023/10/23 05:15:09;;;;;;;7.40;3.92;;;10.80;99.90;;;;;;2098921;28;20500;-73
2023/10/23 05:16:12;;;;;;;4.72;3.65;;;10.80;99.90;;;;;;2096244;28;20065;-75
2023/10/23 05:17:12;;;;;;;5.95;4.50;;;10.80;99.90;;;;;;2100809;28;20441;-74